Time;durP1;ratioP1;P1;durP2;ratioP2;P2;SDS_P1;SDS_P2;PMS_P1;PMS_P2;Temp;Humidity;BMP_temperature;BMP_pressure;BME280_temperature;BME280_humidity;BME280_pressure;Samples;Min_cycle;Max_cycle;Signal;HPM_P1;HPM_P2
2023/01/16 00:00:28;;;;;;;10.00;1.60;;;5.60;99.90;;;;;;5012937;28;20033;-49
2023/01/16 00:02:53;;;;;;;8.60;1.67;;;5.60;99.90;;;;;;5013009;28;20483;-49
2023/01/16 00:05:19;;;;;;;5.63;0.87;;;5.60;99.90;;;;;;5012816;28;20026;-50
2023/01/16 00:07:45;;;;;;;6.40;1.03;;;5.80;99.90;;;;;;5012674;28;20048;-45
2023/01/16 00:10:11;;;;;;;4.50;0.80;;;5.80;99.90;;;;;;5012693;28;20030;-45
2023/01/16 00:12:37;;;;;;;6.57;0.90;;;5.90;99.90;;;;;;5012940;28;20021;-47
2023/01/16 00:15:03;;;;;;;3.73;0.90;;;5.90;99.90;;;;;;5012813;28;20038;-47
2023/01/16 00:17:29;;;;;;;5.77;0.73;;;6.00;99.90;;;;;;5012592;28;20033;-45
2023/01/16 00:19:55;;;;;;;3.30;0.70;;;5.90;99.90;;;;;;5012392;28;20373;-50
2023/01/16 00:22:21;;;;;;;4.43;0.90;;;5.90;99.90;;;;;;5012566;28;20092;-46
2023/01/16 00:24:46;;;;;;;4.00;0.83;;;5.90;99.90;;;;;;5012438;28;20032;-47
2023/01/16 00:27:12;;;;;;;5.00;0.70;;;5.90;99.90;;;;;;5012343;28;20034;-46
2023/01/16 00:29:38;;;;;;;5.63;1.00;;;5.90;99.90;;;;;;5012457;28;20048;-49
2023/01/16 00:32:04;;;;;;;4.53;0.80;;;5.80;99.90;;;;;;5012488;28;20044;-48
2023/01/16 00:34:29;;;;;;;6.83;1.77;;;5.70;99.90;;;;;;5012220;28;20029;-46
2023/01/16 00:36:55;;;;;;;3.63;0.90;;;5.70;99.90;;;;;;5012089;28;20034;-46
2023/01/16 00:39:21;;;;;;;5.83;1.03;;;5.70;99.90;;;;;;5012061;28;20505;-45
2023/01/16 00:41:46;;;;;;;2.63;0.80;;;5.60;99.90;;;;;;5012163;28;20029;-46
2023/01/16 00:44:12;;;;;;;7.37;1.00;;;5.60;99.90;;;;;;5011566;28;20034;-46
2023/01/16 00:46:38;;;;;;;3.53;0.60;;;5.60;99.90;;;;;;5011564;28;20034;-49
2023/01/16 00:49:03;;;;;;;4.33;0.73;;;5.60;99.90;;;;;;5012450;28;20030;-47
2023/01/16 00:51:29;;;;;;;5.13;0.87;;;5.60;99.90;;;;;;5011980;28;20050;-49
2023/01/16 00:53:55;;;;;;;4.70;0.80;;;5.50;99.90;;;;;;5011899;28;20394;-48
2023/01/16 00:56:21;;;;;;;3.90;0.80;;;5.50;99.90;;;;;;5011908;28;20025;-48
2023/01/16 00:58:46;;;;;;;4.03;0.77;;;5.50;99.90;;;;;;5011873;28;20060;-49
2023/01/16 01:01:12;;;;;;;4.03;0.70;;;5.40;99.90;;;;;;5011861;28;20069;-48
2023/01/16 01:03:38;;;;;;;5.03;0.83;;;5.30;99.90;;;;;;5011723;28;20034;-51
2023/01/16 01:06:08;;;;;;;2.70;0.60;;;5.30;99.90;;;;;;5011781;28;20036;-49
2023/01/16 01:08:34;;;;;;;3.50;0.83;;;5.40;99.90;;;;;;5011545;28;20026;-51
2023/01/16 01:11:11;;;;;;;2.53;0.67;;;5.40;99.90;;;;;;5011714;28;20450;-49
2023/01/16 01:13:38;;;;;;;5.07;0.63;;;5.30;99.90;;;;;;5011602;28;20065;-49
2023/01/16 01:16:04;;;;;;;7.63;1.50;;;5.20;99.90;;;;;;5011711;28;20113;-46
2023/01/16 01:18:30;;;;;;;3.03;0.77;;;5.20;99.90;;;;;;5011089;28;20026;-49
2023/01/16 01:20:56;;;;;;;3.23;0.80;;;5.20;99.90;;;;;;5011621;28;20030;-50
2023/01/16 01:23:22;;;;;;;2.47;0.80;;;5.10;99.90;;;;;;5011612;28;20029;-48
2023/01/16 01:25:48;;;;;;;3.93;0.90;;;5.10;99.90;;;;;;5011519;28;20578;-52
2023/01/16 01:28:15;;;;;;;3.37;0.87;;;5.20;99.90;;;;;;5011548;28;20060;-50
2023/01/16 01:30:41;;;;;;;4.60;0.80;;;5.20;99.90;;;;;;5011328;28;20034;-51
2023/01/16 01:33:08;;;;;;;4.83;0.90;;;5.10;99.90;;;;;;5011332;28;20034;-49
2023/01/16 01:35:34;;;;;;;8.13;1.10;;;5.20;99.90;;;;;;5011188;28;20091;-48
2023/01/16 01:38:00;;;;;;;4.23;0.90;;;5.10;99.90;;;;;;5011072;28;20479;-50
2023/01/16 01:40:25;;;;;;;6.03;1.20;;;5.20;99.90;;;;;;5011178;28;20306;-52
2023/01/16 01:42:51;;;;;;;4.57;1.37;;;5.20;99.90;;;;;;5011249;28;20029;-48
2023/01/16 01:45:33;;;;;;;9.73;1.07;;;5.10;99.90;;;;;;5011000;28;20022;-51
2023/01/16 01:48:02;;;;;;;5.00;0.90;;;5.10;99.90;;;;;;5010844;28;20065;-51
2023/01/16 01:50:43;;;;;;;3.58;1.00;;;5.10;99.90;;;;;;5010871;28;20034;-47
2023/01/16 01:53:14;;;;;;;4.07;0.87;;;5.10;99.90;;;;;;5011452;28;20040;-49
2023/01/16 01:55:42;;;;;;;7.77;1.27;;;5.20;99.90;;;;;;5010602;28;20103;-52
2023/01/16 01:58:08;;;;;;;5.00;0.93;;;5.00;99.90;;;;;;5010703;28;20124;-49
2023/01/16 02:00:34;;;;;;;3.47;0.97;;;5.10;99.90;;;;;;5010769;28;20037;-48
2023/01/16 02:03:12;;;;;;;4.73;0.90;;;5.10;99.90;;;;;;5010934;28;20030;-48
2023/01/16 02:05:44;;;;;;;2.20;0.90;;;5.10;99.90;;;;;;5010713;28;20038;-50
2023/01/16 02:08:14;;;;;;;4.33;0.80;;;5.10;99.90;;;;;;5010688;28;20030;-48
2023/01/16 02:10:55;;;;;;;7.93;1.50;;;5.10;99.90;;;;;;5010691;28;20499;-47
2023/01/16 02:13:20;;;;;;;4.63;0.83;;;5.00;99.90;;;;;;5010923;28;20044;-51
2023/01/16 02:21:37;;;;;;;4.77;0.97;;;5.10;99.90;;;;;;5010648;28;20041;-47
2023/01/16 02:24:21;;;;;;;5.50;0.90;;;5.10;99.90;;;;;;5010541;28;20049;-48
2023/01/16 02:27:08;;;;;;;7.87;1.40;;;5.10;99.90;;;;;;5010557;28;20096;-47
2023/01/16 02:30:05;;;;;;;5.20;1.10;;;5.10;99.90;;;;;;5010631;28;20045;-46
2023/01/16 02:32:52;;;;;;;5.43;1.20;;;5.20;99.90;;;;;;5010762;28;20042;-47
2023/01/16 02:35:44;;;;;;;5.17;1.10;;;5.20;99.90;;;;;;5010478;28;20414;-47
2023/01/16 02:38:20;;;;;;;2.70;0.80;;;5.30;99.90;;;;;;5010295;28;20025;-47
2023/01/16 02:40:55;;;;;;;3.40;0.90;;;5.30;99.90;;;;;;5010479;28;20072;-46
2023/01/16 02:43:36;;;;;;;5.33;0.90;;;5.30;99.90;;;;;;5010399;28;20127;-47
2023/01/16 02:46:18;;;;;;;4.37;0.70;;;5.40;99.90;;;;;;5010387;28;20030;-47
2023/01/16 02:48:58;;;;;;;3.40;0.60;;;5.40;99.90;;;;;;5010396;28;20120;-46
2023/01/16 02:51:44;;;;;;;3.73;0.87;;;5.40;99.90;;;;;;5010605;28;20038;-47
2023/01/16 02:54:16;;;;;;;2.50;0.73;;;5.50;99.90;;;;;;5010147;28;20030;-47
2023/01/16 02:56:51;;;;;;;4.57;0.90;;;5.50;99.90;;;;;;5010308;28;20022;-46
2023/01/16 02:59:17;;;;;;;3.13;0.80;;;5.50;99.90;;;;;;5010342;28;20404;-46
2023/01/16 03:01:46;;;;;;;3.10;0.90;;;5.50;99.90;;;;;;5010412;28;20022;-46
2023/01/16 03:04:38;;;;;;;4.03;0.68;;;5.50;99.90;;;;;;5010202;28;20041;-46
2023/01/16 03:07:14;;;;;;;5.83;0.80;;;5.50;99.90;;;;;;5010103;28;20542;-46
2023/01/16 03:09:39;;;;;;;3.07;0.60;;;5.50;99.90;;;;;;5013483;28;20036;-46
2023/01/16 03:12:17;;;;;;;7.97;1.20;;;5.60;99.90;;;;;;5014133;28;20109;-48
2023/01/16 03:14:56;;;;;;;3.07;0.70;;;5.60;99.90;;;;;;5013886;28;20049;-47
2023/01/16 03:17:44;;;;;;;3.58;0.77;;;5.60;99.90;;;;;;5013731;28;20029;-49
2023/01/16 03:20:40;;;;;;;3.63;1.00;;;5.60;99.90;;;;;;5025609;23;20057;-55
2023/01/16 03:23:17;;;;;;;4.43;0.73;;;5.60;99.90;;;;;;5012825;28;20022;-56
2023/01/16 03:26:07;;;;;;;4.60;1.00;;;5.60;99.90;;;;;;5013888;28;20037;-55
2023/01/16 03:28:32;;;;;;;3.13;0.80;;;5.60;99.90;;;;;;5013656;28;20034;-54
2023/01/16 03:31:26;;;;;;;4.80;0.83;;;5.50;99.90;;;;;;5013682;28;20034;-56
2023/01/16 03:34:08;;;;;;;4.20;0.83;;;5.50;99.90;;;;;;5013655;28;20336;-53
2023/01/16 03:36:56;;;;;;;2.33;0.63;;;5.50;99.90;;;;;;5013437;28;20042;-52
2023/01/16 03:39:25;;;;;;;2.27;0.70;;;5.40;99.90;;;;;;5013506;28;20429;-56
2023/01/16 03:41:54;;;;;;;4.43;0.85;;;5.30;99.90;;;;;;5013636;28;20569;-52
2023/01/16 03:44:33;;;;;;;4.68;0.70;;;5.20;99.90;;;;;;5013275;28;20502;-53
2023/01/16 03:47:00;;;;;;;2.27;0.70;;;5.20;99.90;;;;;;5013180;28;20030;-54
2023/01/16 03:49:32;;;;;;;3.63;0.60;;;5.10;99.90;;;;;;5013263;28;20034;-52
2023/01/16 03:52:02;;;;;;;3.03;0.67;;;5.10;99.90;;;;;;5013426;28;20036;-56
2023/01/16 03:54:40;;;;;;;3.97;0.77;;;5.10;99.90;;;;;;5013195;28;20057;-53
2023/01/16 03:57:08;;;;;;;1.57;0.70;;;5.10;99.90;;;;;;5013658;28;20026;-51
2023/01/16 03:59:36;;;;;;;2.07;0.60;;;5.20;99.90;;;;;;5013033;28;20070;-55
2023/01/16 04:02:41;;;;;;;3.33;0.67;;;5.20;99.90;;;;;;5013362;28;20034;-53
2023/01/16 04:05:29;;;;;;;1.93;0.50;;;5.10;99.90;;;;;;5012894;28;20061;-53
2023/01/16 04:08:28;;;;;;;2.40;0.40;;;5.10;99.90;;;;;;5013197;28;20121;-52
2023/01/16 04:10:55;;;;;;;4.03;0.75;;;5.10;99.90;;;;;;5000866;28;20406;-53
2023/01/16 04:13:26;;;;;;;1.80;0.30;;;5.10;99.90;;;;;;5012730;28;20038;-53
2023/01/16 04:15:56;;;;;;;3.47;0.70;;;5.10;99.90;;;;;;5013001;28;20056;-55
2023/01/16 04:18:27;;;;;;;1.93;0.43;;;5.00;99.90;;;;;;5012571;28;20037;-52
2023/01/16 04:20:52;;;;;;;1.87;0.43;;;5.00;99.90;;;;;;5012246;28;20568;-54
2023/01/16 04:23:18;;;;;;;2.00;0.40;;;5.00;99.90;;;;;;5012587;28;20025;-56
2023/01/16 04:25:47;;;;;;;2.10;0.43;;;4.90;99.90;;;;;;5012731;28;20061;-50
2023/01/16 04:28:12;;;;;;;3.65;0.50;;;5.00;99.90;;;;;;5012476;28;20026;-56
2023/01/16 04:30:38;;;;;;;5.97;1.03;;;4.90;99.90;;;;;;5012387;28;20026;-53
2023/01/16 04:33:04;;;;;;;4.20;0.70;;;4.90;99.90;;;;;;5011222;28;20030;-52
2023/01/16 04:35:30;;;;;;;1.03;0.37;;;4.80;99.90;;;;;;5012512;28;20112;-53
2023/01/16 04:37:56;;;;;;;1.50;0.40;;;4.80;99.90;;;;;;5012369;28;20536;-53
2023/01/16 04:40:23;;;;;;;1.57;0.40;;;4.80;99.90;;;;;;5012251;28;20088;-53
2023/01/16 04:42:48;;;;;;;1.67;0.60;;;4.80;99.90;;;;;;5012483;28;20030;-54
2023/01/16 04:45:14;;;;;;;2.23;0.60;;;4.80;99.90;;;;;;5012042;28;20037;-51
2023/01/16 04:47:40;;;;;;;2.57;0.50;;;4.80;99.90;;;;;;5012116;28;20029;-52
2023/01/16 04:50:06;;;;;;;1.97;0.50;;;4.70;99.90;;;;;;5012206;28;20117;-55
2023/01/16 04:52:32;;;;;;;2.90;0.40;;;4.80;99.90;;;;;;5012289;28;20048;-53
2023/01/16 04:54:58;;;;;;;2.00;0.50;;;4.80;99.90;;;;;;5012015;28;20029;-54
2023/01/16 04:57:24;;;;;;;2.73;0.60;;;4.80;99.90;;;;;;5012312;28;20110;-48
2023/01/16 04:59:49;;;;;;;3.27;0.70;;;4.80;99.90;;;;;;5011877;28;20084;-50
2023/01/16 05:02:15;;;;;;;1.53;0.60;;;4.80;99.90;;;;;;5012115;28;20080;-53
2023/01/16 05:04:41;;;;;;;6.33;0.73;;;4.80;99.90;;;;;;5011964;28;20113;-53
2023/01/16 05:07:06;;;;;;;4.23;0.73;;;4.80;99.90;;;;;;5011861;28;20026;-54
2023/01/16 05:09:32;;;;;;;2.80;0.83;;;4.80;99.90;;;;;;5011815;28;20053;-50
2023/01/16 05:11:58;;;;;;;4.80;1.00;;;4.80;99.90;;;;;;5011888;28;20117;-51
2023/01/16 05:14:24;;;;;;;3.60;0.90;;;4.80;99.90;;;;;;5011576;28;20084;-50
2023/01/16 05:16:49;;;;;;;3.57;0.50;;;4.80;99.90;;;;;;5011553;28;20026;-55
2023/01/16 05:19:15;;;;;;;5.37;0.93;;;4.80;99.90;;;;;;5011322;28;20034;-52
2023/01/16 05:21:41;;;;;;;4.13;1.10;;;4.80;99.90;;;;;;5011703;28;20037;-54
2023/01/16 05:24:06;;;;;;;6.00;1.00;;;4.90;99.90;;;;;;5011442;28;20026;-54
2023/01/16 05:26:32;;;;;;;3.40;0.60;;;4.80;99.90;;;;;;5011520;28;20530;-54
2023/01/16 05:28:58;;;;;;;4.57;0.73;;;4.90;99.90;;;;;;5011478;28;20478;-53
2023/01/16 05:31:24;;;;;;;5.23;0.70;;;4.90;99.90;;;;;;5010751;28;20061;-55
2023/01/16 05:33:50;;;;;;;3.63;0.73;;;4.90;99.90;;;;;;5011340;28;20124;-51
2023/01/16 05:36:16;;;;;;;3.53;1.00;;;4.90;99.90;;;;;;5011532;28;20278;-51
2023/01/16 05:38:41;;;;;;;3.80;0.60;;;4.90;99.90;;;;;;5011292;28;20623;-52
2023/01/16 05:41:07;;;;;;;3.07;0.70;;;5.00;99.90;;;;;;5011375;28;20156;-54
2023/01/16 05:43:33;;;;;;;2.37;0.70;;;5.00;99.90;;;;;;5011000;28;20041;-55
2023/01/16 05:45:59;;;;;;;3.73;0.70;;;5.00;99.90;;;;;;5011256;28;20014;-55
2023/01/16 05:48:24;;;;;;;3.57;0.83;;;5.10;99.90;;;;;;5010954;28;20030;-55
2023/01/16 05:50:51;;;;;;;1.30;0.60;;;5.10;99.90;;;;;;5011189;28;20253;-52
2023/01/16 05:53:16;;;;;;;2.30;0.70;;;5.20;99.90;;;;;;5011553;28;20398;-54
2023/01/16 05:55:46;;;;;;;5.50;0.77;;;5.20;99.90;;;;;;5011090;28;20038;-55
2023/01/16 05:58:14;;;;;;;2.27;0.60;;;5.30;99.90;;;;;;5010957;28;20033;-56
2023/01/16 06:00:40;;;;;;;3.93;0.70;;;5.30;99.90;;;;;;5010892;28;20033;-54
2023/01/16 06:03:07;;;;;;;3.57;0.67;;;5.30;99.90;;;;;;5011068;28;20021;-57
2023/01/16 06:05:33;;;;;;;2.57;0.73;;;5.40;99.90;;;;;;5010868;28;20030;-53
2023/01/16 06:07:58;;;;;;;1.27;0.53;;;5.40;99.90;;;;;;5010887;28;20034;-54
2023/01/16 06:10:25;;;;;;;4.17;0.90;;;5.40;99.90;;;;;;5010876;28;20030;-51
2023/01/16 06:12:51;;;;;;;3.57;1.53;;;5.40;99.90;;;;;;5010948;28;20041;-53
2023/01/16 06:15:17;;;;;;;4.00;0.80;;;5.40;99.90;;;;;;5010778;28;20033;-54
2023/01/16 06:17:43;;;;;;;2.40;0.80;;;5.40;99.90;;;;;;5010740;28;20038;-56
2023/01/16 06:20:10;;;;;;;4.30;0.77;;;5.40;99.90;;;;;;5010678;28;20040;-52
2023/01/16 06:22:36;;;;;;;8.67;1.33;;;5.40;99.90;;;;;;5010894;28;20053;-53
2023/01/16 06:25:02;;;;;;;3.77;0.70;;;5.40;99.90;;;;;;5011099;28;20390;-55
2023/01/16 06:27:28;;;;;;;6.40;1.33;;;5.40;99.90;;;;;;5010480;28;20026;-52
2023/01/16 06:29:53;;;;;;;1.93;0.60;;;5.40;99.90;;;;;;5010667;28;20544;-53
2023/01/16 06:32:19;;;;;;;2.73;0.77;;;5.40;99.90;;;;;;5010658;28;20030;-50
2023/01/16 06:34:45;;;;;;;1.40;0.30;;;5.50;99.90;;;;;;5010601;28;20180;-52
2023/01/16 06:37:11;;;;;;;3.53;0.57;;;5.50;99.90;;;;;;5010509;28;20033;-56
2023/01/16 06:39:37;;;;;;;1.27;0.40;;;5.50;99.90;;;;;;5010373;28;20108;-50
2023/01/16 06:42:04;;;;;;;1.53;0.40;;;5.50;99.90;;;;;;5011175;28;20048;-52
2023/01/16 06:44:32;;;;;;;1.70;0.40;;;5.50;99.90;;;;;;5014640;28;20368;-55
2023/01/16 06:46:58;;;;;;;2.53;0.70;;;5.50;99.90;;;;;;5013036;28;20032;-55
2023/01/16 06:49:24;;;;;;;3.60;0.70;;;5.50;99.90;;;;;;5014371;28;20116;-52
2023/01/16 06:51:50;;;;;;;4.67;0.70;;;5.50;99.90;;;;;;5015075;28;20034;-54
2023/01/16 06:54:15;;;;;;;3.43;1.10;;;5.50;99.90;;;;;;5014642;28;20125;-55
2023/01/16 06:56:41;;;;;;;2.90;0.60;;;5.50;99.90;;;;;;5014628;28;20040;-51
2023/01/16 06:59:07;;;;;;;2.03;0.43;;;5.50;99.90;;;;;;5014564;28;20486;-55
2023/01/16 07:01:32;;;;;;;3.43;0.80;;;5.60;99.90;;;;;;5015156;28;20374;-50
2023/01/16 07:03:58;;;;;;;2.30;0.50;;;5.60;99.90;;;;;;5014421;28;20026;-51
2023/01/16 07:06:24;;;;;;;1.63;0.43;;;5.60;99.90;;;;;;5014013;28;20025;-54
2023/01/16 07:08:50;;;;;;;2.63;0.47;;;5.60;99.90;;;;;;5013996;28;20454;-52
2023/01/16 07:11:17;;;;;;;3.13;0.60;;;5.70;99.90;;;;;;5014081;28;20655;-50
2023/01/16 07:13:43;;;;;;;2.20;0.57;;;5.70;99.90;;;;;;5013924;28;20510;-54
2023/01/16 07:24:50;;;;;;;3.27;0.90;;;5.60;99.90;;;;;;4971990;28;20031;-53
2023/01/16 07:27:15;;;;;;;4.80;1.07;;;5.60;99.90;;;;;;4971930;28;20037;-55
2023/01/16 07:29:41;;;;;;;3.00;0.60;;;5.60;99.90;;;;;;4990976;28;20103;-54
2023/01/16 07:32:07;;;;;;;2.00;0.67;;;5.60;99.90;;;;;;5013747;28;20037;-50
2023/01/16 07:34:34;;;;;;;2.23;0.57;;;5.60;99.90;;;;;;5013707;28;20049;-52
2023/01/16 07:37:00;;;;;;;4.17;0.80;;;5.50;99.90;;;;;;5013513;28;20026;-53
2023/01/16 07:39:26;;;;;;;2.67;0.90;;;5.40;99.90;;;;;;5013402;28;20095;-56
2023/01/16 07:41:52;;;;;;;3.97;0.90;;;5.30;99.90;;;;;;5013517;28;20364;-54
2023/01/16 07:44:17;;;;;;;3.63;0.70;;;5.30;99.90;;;;;;5013132;28;20109;-50
2023/01/16 07:46:43;;;;;;;2.03;0.70;;;5.20;99.90;;;;;;5013232;28;20037;-53
2023/01/16 07:49:09;;;;;;;3.80;1.03;;;5.20;99.90;;;;;;5013292;28;20021;-52
2023/01/16 07:51:34;;;;;;;5.10;1.30;;;5.20;99.90;;;;;;5013491;28;20022;-52
2023/01/16 07:54:00;;;;;;;4.00;1.10;;;5.00;99.90;;;;;;5012475;28;20025;-50
2023/01/16 07:56:26;;;;;;;6.70;1.33;;;4.90;99.90;;;;;;5013166;28;20505;-55
2023/01/16 07:58:54;;;;;;;4.57;1.50;;;4.90;99.90;;;;;;5013120;28;20033;-52
2023/01/16 08:01:19;;;;;;;6.33;1.53;;;4.90;99.90;;;;;;5013368;28;20033;-52
2023/01/16 08:03:45;;;;;;;4.17;1.20;;;4.80;99.90;;;;;;5012997;28;20026;-50
2023/01/16 08:06:11;;;;;;;3.70;0.93;;;4.90;99.90;;;;;;5013237;28;20211;-55
2023/01/16 08:08:36;;;;;;;3.93;1.33;;;5.00;99.90;;;;;;5012996;28;20179;-56
2023/01/16 08:11:35;;;;;;;6.03;1.40;;;4.90;99.90;;;;;;5012931;28;20042;-56
2023/01/16 08:13:51;;;;;;;34.47;17.63;;;4.90;99.90;;;;;;5012711;28;20034;-54
2023/01/16 08:16:17;;;;;;;3.97;1.20;;;5.00;99.90;;;;;;5012985;28;20441;-55
2023/01/16 08:18:42;;;;;;;2.87;0.97;;;5.00;99.90;;;;;;5012803;28;20036;-55
2023/01/16 08:21:08;;;;;;;4.93;1.00;;;5.00;99.90;;;;;;5012605;28;20084;-51
2023/01/16 08:23:34;;;;;;;5.50;1.33;;;5.00;99.90;;;;;;5012517;28;20030;-56
2023/01/16 08:26:00;;;;;;;7.17;1.37;;;5.00;99.90;;;;;;5012678;28;20030;-53
2023/01/16 08:28:26;;;;;;;1.63;0.40;;;5.10;99.90;;;;;;5012487;28;20437;-53
2023/01/16 08:30:52;;;;;;;6.30;1.10;;;5.10;99.90;;;;;;5012826;28;20398;-54
2023/01/16 08:33:17;;;;;;;4.60;0.90;;;5.10;99.90;;;;;;5012625;28;20044;-51
2023/01/16 08:35:43;;;;;;;2.17;0.80;;;5.20;99.90;;;;;;5012862;28;20034;-51
2023/01/16 08:38:09;;;;;;;4.60;1.10;;;5.20;99.90;;;;;;5012391;28;20037;-53
2023/01/16 08:40:34;;;;;;;6.00;0.93;;;5.30;99.90;;;;;;5012184;28;20057;-51
2023/01/16 08:51:22;;;;;;;5.07;1.30;;;5.40;99.90;;;;;;5012227;28;20111;-55
2023/01/16 08:53:50;;;;;;;4.67;0.90;;;5.50;99.90;;;;;;5011986;28;20116;-53
2023/01/16 08:56:15;;;;;;;5.10;1.10;;;5.50;99.90;;;;;;5012083;28;20044;-54
2023/01/16 08:58:41;;;;;;;5.30;1.00;;;5.50;99.90;;;;;;5011949;28;20026;-53
2023/01/16 09:01:07;;;;;;;4.53;0.80;;;5.50;99.90;;;;;;5012374;28;20430;-53
2023/01/16 09:03:34;;;;;;;1.80;0.80;;;5.50;99.90;;;;;;5011668;28;20026;-54
2023/01/16 09:06:00;;;;;;;2.23;0.60;;;5.40;99.90;;;;;;5011177;28;20030;-51
2023/01/16 09:08:26;;;;;;;1.37;0.57;;;5.40;99.90;;;;;;5011859;28;20030;-51
2023/01/16 09:13:48;;;;;;;5.13;0.93;;;5.40;99.90;;;;;;5011559;28;20121;-51
2023/01/16 09:16:22;;;;;;;2.53;1.00;;;5.30;99.90;;;;;;5011934;28;20393;-55
2023/01/16 09:18:48;;;;;;;3.13;0.57;;;5.30;99.90;;;;;;5011858;28;20043;-51
2023/01/16 09:21:14;;;;;;;0.63;0.40;;;5.20;99.90;;;;;;5023562;23;20053;-49
2023/01/16 09:23:40;;;;;;;2.63;0.80;;;5.30;99.90;;;;;;5011066;28;20479;-47
2023/01/16 09:26:05;;;;;;;3.97;0.80;;;5.20;99.90;;;;;;5011621;28;20030;-50
2023/01/16 09:28:31;;;;;;;4.13;1.03;;;5.10;99.90;;;;;;5011328;28;20022;-50
2023/01/16 09:30:57;;;;;;;2.60;0.90;;;5.10;99.90;;;;;;5011575;28;20457;-51
2023/01/16 09:33:23;;;;;;;1.33;0.40;;;5.00;99.90;;;;;;5011326;28;20458;-51
2023/01/16 09:35:49;;;;;;;6.00;1.00;;;5.00;99.90;;;;;;5011400;28;20037;-49
2023/01/16 09:38:14;;;;;;;4.40;0.90;;;5.00;99.90;;;;;;5011247;28;20084;-46
2023/01/16 09:40:49;;;;;;;1.43;0.77;;;5.00;99.90;;;;;;5011084;28;20072;-46
2023/01/16 09:43:35;;;;;;;3.60;0.70;;;5.00;99.90;;;;;;5011225;28;20061;-50
2023/01/16 09:46:08;;;;;;;6.30;0.80;;;5.10;99.90;;;;;;5011351;28;20026;-47
2023/01/16 09:48:49;;;;;;;2.47;0.70;;;5.10;99.90;;;;;;5011093;28;20100;-52
2023/01/16 09:51:23;;;;;;;1.70;0.53;;;5.10;99.90;;;;;;5011353;28;20390;-49
2023/01/16 09:59:37;;;;;;;1.17;0.57;;;5.10;99.90;;;;;;5010936;28;20033;-49
2023/01/16 10:02:23;;;;;;;4.55;0.60;;;5.10;99.90;;;;;;5011027;28;20436;-51
2023/01/16 10:04:51;;;;;;;1.60;0.50;;;5.20;99.90;;;;;;5010887;28;20041;-48
2023/01/16 10:07:50;;;;;;;3.10;0.60;;;5.20;99.90;;;;;;5010891;28;20490;-49
2023/01/16 10:10:44;;;;;;;1.87;0.57;;;5.10;99.90;;;;;;5010752;28;20109;-48
2023/01/16 10:13:31;;;;;;;3.00;0.53;;;5.20;99.90;;;;;;5010958;28;20041;-48
2023/01/16 10:16:12;;;;;;;1.03;0.50;;;5.20;99.90;;;;;;5010953;28;20041;-48
2023/01/16 10:19:11;;;;;;;2.00;0.53;;;5.10;99.90;;;;;;5010395;28;20391;-47
2023/01/16 10:21:55;;;;;;;1.45;0.50;;;5.10;99.90;;;;;;5010792;28;20088;-48
2023/01/16 10:24:42;;;;;;;2.07;0.70;;;5.10;99.90;;;;;;5010617;28;20033;-49
2023/01/16 10:27:11;;;;;;;1.97;0.70;;;5.10;99.90;;;;;;5010569;28;20130;-46
2023/01/16 10:29:44;;;;;;;2.43;0.50;;;5.20;99.90;;;;;;5011091;28;20406;-47
2023/01/16 10:32:28;;;;;;;1.67;0.70;;;5.10;99.90;;;;;;5010932;28;20398;-45
2023/01/16 10:35:12;;;;;;;0.93;0.43;;;5.10;99.90;;;;;;5010580;28;20088;-49
2023/01/16 10:37:40;;;;;;;4.37;1.20;;;5.10;99.90;;;;;;5010431;28;20376;-48
2023/01/16 10:40:24;;;;;;;2.50;0.80;;;5.10;99.90;;;;;;5010475;28;20038;-51
2023/01/16 10:51:16;;;;;;;2.83;0.70;;;5.30;99.90;;;;;;5010606;28;20044;-51
2023/01/16 10:53:43;;;;;;;4.63;0.90;;;5.40;99.90;;;;;;5010262;28;20034;-47
2023/01/16 10:56:10;;;;;;;1.63;0.60;;;5.40;99.90;;;;;;5010384;28;20026;-48
2023/01/16 10:58:40;;;;;;;4.00;0.60;;;5.40;99.90;;;;;;5010191;28;20109;-49
2023/01/16 11:01:18;;;;;;;0.77;0.40;;;5.40;99.90;;;;;;5010718;28;20483;-49
2023/01/16 11:03:48;;;;;;;1.53;0.83;;;5.50;99.90;;;;;;5010311;28;20071;-48
2023/01/16 11:06:20;;;;;;;0.83;0.20;;;5.50;99.90;;;;;;5010033;28;20180;-48
2023/01/16 11:08:55;;;;;;;3.33;0.40;;;5.60;99.90;;;;;;5010095;28;20026;-47
2023/01/16 11:20:18;;;;;;;1.43;0.30;;;5.80;99.90;;;;;;5009995;28;20180;-49
2023/01/16 11:22:48;;;;;;;2.47;0.50;;;5.90;99.90;;;;;;5010214;28;20037;-49
2023/01/16 11:25:20;;;;;;;1.33;0.50;;;6.00;99.90;;;;;;5009978;28;20029;-46
2023/01/16 11:27:49;;;;;;;1.50;0.30;;;6.00;99.90;;;;;;5009918;28;20022;-50
2023/01/16 11:30:26;;;;;;;0.52;0.10;;;6.10;99.90;;;;;;5012458;28;20065;-46
2023/01/16 11:32:54;;;;;;;1.33;0.40;;;6.10;99.90;;;;;;5013745;28;20057;-48
2023/01/16 11:35:20;;;;;;;0.97;0.40;;;6.00;99.90;;;;;;5013490;28;20371;-49
2023/01/16 11:37:50;;;;;;;1.40;0.50;;;6.00;99.90;;;;;;5013359;28;20037;-52
2023/01/16 11:40:22;;;;;;;0.57;0.27;;;6.00;99.90;;;;;;5013338;28;20030;-52
2023/01/16 11:46:03;;;;;;;1.37;0.50;;;5.90;99.90;;;;;;5013443;28;20084;-51
2023/01/16 11:48:41;;;;;;;1.47;0.53;;;5.90;99.90;;;;;;5013630;28;20025;-46
2023/01/16 11:51:14;;;;;;;2.87;0.40;;;5.90;99.90;;;;;;5013422;28;20042;-50
2023/01/16 11:53:45;;;;;;;0.90;0.37;;;5.90;99.90;;;;;;5013167;28;20390;-50
2023/01/16 11:56:47;;;;;;;2.20;0.53;;;5.90;99.90;;;;;;5013395;28;20222;-45
2023/01/16 11:59:46;;;;;;;1.00;0.47;;;6.00;99.90;;;;;;5013462;28;20053;-49
2023/01/16 12:02:39;;;;;;;1.42;0.50;;;5.90;99.90;;;;;;5013285;28;20088;-49
2023/01/16 12:08:38;;;;;;;1.43;0.40;;;6.10;99.90;;;;;;5012777;28;20037;-51
2023/01/16 12:11:08;;;;;;;0.63;0.27;;;6.10;99.90;;;;;;5012833;28;20037;-48
2023/01/16 12:16:44;;;;;;;2.63;0.93;;;6.10;99.90;;;;;;5012849;28;20442;-49
2023/01/16 12:19:48;;;;;;;1.10;0.40;;;6.20;99.90;;;;;;5012713;28;20105;-45
2023/01/16 12:22:38;;;;;;;0.77;0.37;;;6.20;99.90;;;;;;5012893;28;20040;-51
2023/01/16 12:25:39;;;;;;;1.37;0.37;;;6.10;99.90;;;;;;5012542;28;20038;-46
2023/01/16 12:28:22;;;;;;;1.80;0.60;;;6.10;99.90;;;;;;5012511;28;20029;-46
2023/01/16 12:31:16;;;;;;;0.77;0.30;;;6.10;99.90;;;;;;5012453;28;20030;-48
2023/01/16 12:34:00;;;;;;;1.27;0.33;;;6.10;99.90;;;;;;5012421;28;20127;-48
2023/01/16 12:36:44;;;;;;;1.03;0.43;;;6.00;99.90;;;;;;5012487;28;20120;-49
2023/01/16 12:40:02;;;;;;;1.13;0.20;;;6.00;99.90;;;;;;5012434;28;20285;-46
2023/01/16 12:43:18;;;;;;;1.60;0.27;;;5.90;99.90;;;;;;4970706;28;20061;-48
2023/01/16 12:45:46;;;;;;;2.57;0.70;;;5.90;99.90;;;;;;4970816;28;20114;-49
2023/01/16 12:48:39;;;;;;;7.67;3.67;;;5.90;99.90;;;;;;5004538;28;20135;-51
2023/01/16 12:51:20;;;;;;;11.97;6.63;;;5.90;99.90;;;;;;5012306;28;20041;-47
2023/01/16 12:54:24;;;;;;;16.90;8.57;;;5.90;99.90;;;;;;5012064;28;20092;-51
2023/01/16 12:56:55;;;;;;;11.80;6.17;;;5.80;99.90;;;;;;5011910;28;20033;-51
2023/01/16 12:59:39;;;;;;;8.07;2.60;;;5.80;99.90;;;;;;5011912;28;20040;-51
2023/01/16 13:02:21;;;;;;;3.43;0.90;;;5.70;99.90;;;;;;5012191;28;20380;-49
2023/01/16 13:04:52;;;;;;;0.97;0.50;;;5.80;99.90;;;;;;5011837;28;20049;-50
2023/01/16 13:07:18;;;;;;;3.83;0.60;;;5.80;99.90;;;;;;5011786;28;20384;-50
2023/01/16 13:13:21;;;;;;;0.60;0.30;;;5.70;99.90;;;;;;5010150;28;20049;-46
2023/01/16 13:15:58;;;;;;;1.40;0.40;;;5.60;99.90;;;;;;5011775;28;20558;-48
2023/01/16 13:18:50;;;;;;;1.33;0.60;;;5.60;99.90;;;;;;5011684;28;20596;-45
2023/01/16 13:21:24;;;;;;;1.87;0.60;;;5.60;99.90;;;;;;5011426;28;20593;-48
2023/01/16 13:24:12;;;;;;;8.33;3.17;;;5.70;99.90;;;;;;5011496;28;20044;-53
2023/01/16 13:26:39;;;;;;;20.37;7.40;;;5.70;99.90;;;;;;5011443;28;20030;-50
2023/01/16 13:29:26;;;;;;;10.93;4.67;;;5.70;99.90;;;;;;5011480;28;20053;-51
2023/01/16 13:32:10;;;;;;;2.83;1.60;;;5.80;99.90;;;;;;5011566;28;20038;-50
2023/01/16 13:34:44;;;;;;;3.30;0.90;;;5.80;99.90;;;;;;5011124;28;20387;-50
2023/01/16 13:37:22;;;;;;;1.00;0.63;;;5.80;99.90;;;;;;5011364;28;20034;-49
2023/01/16 13:39:57;;;;;;;1.30;0.50;;;5.80;99.90;;;;;;5011200;28;20034;-46
2023/01/16 13:42:25;;;;;;;2.63;0.53;;;5.70;99.90;;;;;;5010181;28;20490;-48
2023/01/16 13:47:44;;;;;;;1.50;0.50;;;5.80;99.90;;;;;;5011254;28;20053;-50
2023/01/16 13:50:28;;;;;;;3.00;0.70;;;5.70;99.90;;;;;;5011137;28;20034;-52
2023/01/16 13:52:56;;;;;;;1.07;0.60;;;5.70;99.90;;;;;;5010587;28;20038;-50
2023/01/16 13:55:34;;;;;;;0.93;0.50;;;5.70;99.90;;;;;;5010800;28;20034;-47
2023/01/16 13:58:20;;;;;;;0.93;0.33;;;5.60;99.90;;;;;;5009589;28;20537;-46
2023/01/16 14:00:54;;;;;;;1.33;0.60;;;5.60;99.90;;;;;;5010847;28;20034;-49
2023/01/16 14:03:29;;;;;;;2.70;0.70;;;5.60;99.90;;;;;;5010896;28;20109;-46
2023/01/16 14:06:16;;;;;;;4.77;1.43;;;5.50;99.90;;;;;;5010857;28;20558;-49
2023/01/16 14:09:14;;;;;;;10.20;4.07;;;5.40;99.90;;;;;;5010850;28;20117;-47
2023/01/16 14:12:17;;;;;;;23.47;9.80;;;5.40;99.90;;;;;;5010985;28;20037;-48
2023/01/16 14:18:00;;;;;;;6.27;2.90;;;5.30;99.90;;;;;;5010719;28;20077;-46
2023/01/16 14:20:42;;;;;;;2.30;0.50;;;5.30;99.90;;;;;;5010320;28;20030;-47
2023/01/16 14:26:37;;;;;;;2.87;0.63;;;5.30;99.90;;;;;;5010610;28;20076;-49
2023/01/16 14:29:17;;;;;;;1.80;0.50;;;5.30;99.90;;;;;;5010901;28;20029;-46
2023/01/16 14:32:03;;;;;;;2.57;0.60;;;5.30;99.90;;;;;;5010843;28;20084;-46
2023/01/16 14:34:54;;;;;;;1.33;0.70;;;5.20;99.90;;;;;;5003206;28;95743;-48